LYBE/BEG METAR and TAF weather

Enter ICAO airport designator
Station Type Date Time Source
LYBE METAR 2021/05/12 01:30 UTC NOAA

LYBE 120130Z 14013KT CAVOK 19/06 Q1007 NOSIG


Station Type Date Time Source
LYBE Decoded METAR 2021/05/12 01:30 UTC NOAA

Beograd / Surcin, Serbia and Montenegro (LYBE) 44-49N 020-17E 99M
May 11, 2021 - 09:30 PM EDT / 2021.05.12 0130 UTC
Wind: from the SE (140 degrees) at 15 MPH (13 KT):0
Visibility: greater than 7 mile(s):0
Temperature: 66 F (19 C)
Dew Point: 42 F (6 C)
Relative Humidity: 42%
Pressure (altimeter): 29.74 in. Hg (1007 hPa)
ob: LYBE 120130Z 14013KT CAVOK 19/06 Q1007 NOSIG
cycle: 1

Station Type Date Time Source
LYBE TAF 2021/05/11 18:21 UTC NOAA

TAF LYBE 111700Z 1118/1218 12010KT CAVOK TX26/1118Z TN15/1203Z
BECMG 1209/1211 22008KT
TEMPO 1211/1216 28015G25KT 5000 TSRA SCT030CB SCT035

Example: see airport list